sensor_id;sensor_type;location;lat;lon;timestamp;P1;durP1;ratioP1;P2;durP2;ratioP2
18443;SDS011;9350;53.176;8.194;2022-12-18T00:00:45;83.95;;;26.10;;
18443;SDS011;9350;53.176;8.194;2022-12-18T00:03:13;92.40;;;26.53;;
18443;SDS011;9350;53.176;8.194;2022-12-18T00:05:45;85.80;;;26.48;;
18443;SDS011;9350;53.176;8.194;2022-12-18T00:08:13;91.63;;;26.90;;
18443;SDS011;9350;53.176;8.194;2022-12-18T00:10:40;95.07;;;26.50;;
18443;SDS011;9350;53.176;8.194;2022-12-18T00:13:08;91.90;;;26.50;;
18443;SDS011;9350;53.176;8.194;2022-12-18T00:15:35;93.63;;;27.53;;
18443;SDS011;9350;53.176;8.194;2022-12-18T00:18:02;92.43;;;26.47;;
18443;SDS011;9350;53.176;8.194;2022-12-18T00:20:29;88.90;;;26.27;;
18443;SDS011;9350;53.176;8.194;2022-12-18T00:22:56;92.77;;;27.23;;
18443;SDS011;9350;53.176;8.194;2022-12-18T00:25:23;98.60;;;27.97;;
18443;SDS011;9350;53.176;8.194;2022-12-18T00:27:49;90.20;;;26.33;;
18443;SDS011;9350;53.176;8.194;2022-12-18T00:30:17;82.10;;;25.98;;
18443;SDS011;9350;53.176;8.194;2022-12-18T00:32:44;89.22;;;25.27;;
18443;SDS011;9350;53.176;8.194;2022-12-18T00:35:11;94.17;;;26.80;;
18443;SDS011;9350;53.176;8.194;2022-12-18T00:37:38;93.63;;;28.33;;
18443;SDS011;9350;53.176;8.194;2022-12-18T00:40:05;114.10;;;28.70;;
18443;SDS011;9350;53.176;8.194;2022-12-18T00:42:35;96.13;;;28.50;;
18443;SDS011;9350;53.176;8.194;2022-12-18T00:45:21;88.85;;;26.60;;
18443;SDS011;9350;53.176;8.194;2022-12-18T00:47:47;101.25;;;28.50;;
18443;SDS011;9350;53.176;8.194;2022-12-18T00:50:14;108.80;;;28.83;;
18443;SDS011;9350;53.176;8.194;2022-12-18T00:52:41;92.43;;;26.80;;
18443;SDS011;9350;53.176;8.194;2022-12-18T00:55:08;105.28;;;27.65;;
18443;SDS011;9350;53.176;8.194;2022-12-18T00:57:35;101.30;;;28.20;;
18443;SDS011;9350;53.176;8.194;2022-12-18T01:00:03;112.80;;;28.60;;
18443;SDS011;9350;53.176;8.194;2022-12-18T01:02:32;89.50;;;27.03;;
18443;SDS011;9350;53.176;8.194;2022-12-18T01:04:58;94.43;;;27.37;;
18443;SDS011;9350;53.176;8.194;2022-12-18T01:07:26;94.17;;;26.43;;
18443;SDS011;9350;53.176;8.194;2022-12-18T01:09:52;103.30;;;28.83;;
18443;SDS011;9350;53.176;8.194;2022-12-18T01:12:19;98.23;;;27.57;;
18443;SDS011;9350;53.176;8.194;2022-12-18T01:14:46;88.18;;;27.83;;
18443;SDS011;9350;53.176;8.194;2022-12-18T01:17:12;91.93;;;26.33;;
18443;SDS011;9350;53.176;8.194;2022-12-18T01:19:40;77.15;;;24.55;;
18443;SDS011;9350;53.176;8.194;2022-12-18T01:22:07;86.47;;;24.27;;
18443;SDS011;9350;53.176;8.194;2022-12-18T01:24:34;71.72;;;23.63;;
18443;SDS011;9350;53.176;8.194;2022-12-18T01:27:01;75.03;;;23.77;;
18443;SDS011;9350;53.176;8.194;2022-12-18T01:29:27;72.07;;;22.07;;
18443;SDS011;9350;53.176;8.194;2022-12-18T01:31:54;71.35;;;22.92;;
18443;SDS011;9350;53.176;8.194;2022-12-18T01:34:21;71.23;;;22.80;;
18443;SDS011;9350;53.176;8.194;2022-12-18T01:36:49;65.80;;;21.20;;
18443;SDS011;9350;53.176;8.194;2022-12-18T01:39:17;61.70;;;19.90;;
18443;SDS011;9350;53.176;8.194;2022-12-18T01:41:44;64.18;;;21.50;;
18443;SDS011;9350;53.176;8.194;2022-12-18T01:47:24;66.87;;;20.40;;
18443;SDS011;9350;53.176;8.194;2022-12-18T01:49:53;59.47;;;20.27;;
18443;SDS011;9350;53.176;8.194;2022-12-18T01:52:23;56.90;;;19.33;;
18443;SDS011;9350;53.176;8.194;2022-12-18T01:54:51;49.27;;;18.10;;
18443;SDS011;9350;53.176;8.194;2022-12-18T01:57:19;53.37;;;18.47;;
18443;SDS011;9350;53.176;8.194;2022-12-18T01:59:47;53.73;;;18.03;;
18443;SDS011;9350;53.176;8.194;2022-12-18T02:02:17;55.63;;;18.23;;
18443;SDS011;9350;53.176;8.194;2022-12-18T02:04:45;61.60;;;19.60;;
18443;SDS011;9350;53.176;8.194;2022-12-18T02:07:14;50.57;;;18.50;;
18443;SDS011;9350;53.176;8.194;2022-12-18T02:09:48;51.53;;;17.97;;
18443;SDS011;9350;53.176;8.194;2022-12-18T02:12:18;57.13;;;18.97;;
18443;SDS011;9350;53.176;8.194;2022-12-18T02:14:48;57.40;;;19.52;;
18443;SDS011;9350;53.176;8.194;2022-12-18T02:17:26;55.13;;;18.35;;
18443;SDS011;9350;53.176;8.194;2022-12-18T02:20:02;47.90;;;17.03;;
18443;SDS011;9350;53.176;8.194;2022-12-18T02:22:40;50.77;;;18.27;;
18443;SDS011;9350;53.176;8.194;2022-12-18T02:25:23;50.10;;;17.40;;
18443;SDS011;9350;53.176;8.194;2022-12-18T02:28:01;53.97;;;17.53;;
18443;SDS011;9350;53.176;8.194;2022-12-18T02:30:32;47.03;;;16.87;;
18443;SDS011;9350;53.176;8.194;2022-12-18T02:33:01;53.50;;;18.33;;
18443;SDS011;9350;53.176;8.194;2022-12-18T02:35:30;52.50;;;17.30;;
18443;SDS011;9350;53.176;8.194;2022-12-18T02:37:59;51.23;;;16.63;;
18443;SDS011;9350;53.176;8.194;2022-12-18T02:40:27;47.83;;;17.33;;
18443;SDS011;9350;53.176;8.194;2022-12-18T02:42:55;46.90;;;16.77;;
18443;SDS011;9350;53.176;8.194;2022-12-18T02:45:29;45.23;;;16.50;;
18443;SDS011;9350;53.176;8.194;2022-12-18T02:47:56;54.87;;;17.93;;
18443;SDS011;9350;53.176;8.194;2022-12-18T02:50:25;44.50;;;15.93;;
18443;SDS011;9350;53.176;8.194;2022-12-18T02:53:03;39.60;;;15.37;;
18443;SDS011;9350;53.176;8.194;2022-12-18T02:55:39;43.90;;;15.10;;
18443;SDS011;9350;53.176;8.194;2022-12-18T02:58:16;40.67;;;16.00;;
18443;SDS011;9350;53.176;8.194;2022-12-18T03:00:51;45.10;;;16.23;;
18443;SDS011;9350;53.176;8.194;2022-12-18T03:03:24;38.03;;;15.80;;
18443;SDS011;9350;53.176;8.194;2022-12-18T03:05:56;46.37;;;16.03;;
18443;SDS011;9350;53.176;8.194;2022-12-18T03:08:27;40.77;;;16.50;;
18443;SDS011;9350;53.176;8.194;2022-12-18T03:10:58;38.63;;;15.27;;
18443;SDS011;9350;53.176;8.194;2022-12-18T03:13:28;39.97;;;14.97;;
18443;SDS011;9350;53.176;8.194;2022-12-18T03:16:00;48.10;;;16.00;;
18443;SDS011;9350;53.176;8.194;2022-12-18T03:18:29;44.90;;;15.13;;
18443;SDS011;9350;53.176;8.194;2022-12-18T03:21:00;43.47;;;16.47;;
18443;SDS011;9350;53.176;8.194;2022-12-18T03:23:33;41.53;;;14.83;;
18443;SDS011;9350;53.176;8.194;2022-12-18T03:26:07;39.57;;;14.50;;
18443;SDS011;9350;53.176;8.194;2022-12-18T03:28:36;40.20;;;15.10;;
18443;SDS011;9350;53.176;8.194;2022-12-18T03:31:10;41.13;;;14.87;;
18443;SDS011;9350;53.176;8.194;2022-12-18T03:33:40;37.97;;;14.70;;
18443;SDS011;9350;53.176;8.194;2022-12-18T03:36:12;38.47;;;14.33;;
18443;SDS011;9350;53.176;8.194;2022-12-18T03:38:39;41.57;;;15.27;;
18443;SDS011;9350;53.176;8.194;2022-12-18T03:41:07;38.90;;;14.53;;
18443;SDS011;9350;53.176;8.194;2022-12-18T03:43:45;37.23;;;13.97;;
18443;SDS011;9350;53.176;8.194;2022-12-18T03:46:20;33.53;;;14.53;;
18443;SDS011;9350;53.176;8.194;2022-12-18T03:48:55;35.50;;;14.03;;
18443;SDS011;9350;53.176;8.194;2022-12-18T03:51:28;35.43;;;14.67;;
18443;SDS011;9350;53.176;8.194;2022-12-18T03:54:03;33.67;;;14.07;;
18443;SDS011;9350;53.176;8.194;2022-12-18T03:56:35;31.30;;;12.67;;
18443;SDS011;9350;53.176;8.194;2022-12-18T03:59:05;35.73;;;14.33;;
18443;SDS011;9350;53.176;8.194;2022-12-18T04:01:35;32.33;;;13.53;;
18443;SDS011;9350;53.176;8.194;2022-12-18T04:04:07;36.57;;;13.77;;
18443;SDS011;9350;53.176;8.194;2022-12-18T04:06:37;33.00;;;13.97;;
18443;SDS011;9350;53.176;8.194;2022-12-18T04:09:04;34.17;;;13.43;;
18443;SDS011;9350;53.176;8.194;2022-12-18T04:11:31;38.27;;;14.50;;
18443;SDS011;9350;53.176;8.194;2022-12-18T04:13:58;35.87;;;13.60;;
18443;SDS011;9350;53.176;8.194;2022-12-18T04:16:25;38.03;;;14.70;;
18443;SDS011;9350;53.176;8.194;2022-12-18T04:18:54;33.60;;;13.43;;
18443;SDS011;9350;53.176;8.194;2022-12-18T04:21:21;37.77;;;14.10;;
18443;SDS011;9350;53.176;8.194;2022-12-18T04:23:47;35.97;;;13.03;;
18443;SDS011;9350;53.176;8.194;2022-12-18T04:26:14;33.33;;;13.90;;
18443;SDS011;9350;53.176;8.194;2022-12-18T04:28:41;30.27;;;13.60;;
18443;SDS011;9350;53.176;8.194;2022-12-18T04:31:08;31.67;;;14.30;;
18443;SDS011;9350;53.176;8.194;2022-12-18T04:33:34;36.53;;;13.77;;
18443;SDS011;9350;53.176;8.194;2022-12-18T04:36:03;36.23;;;13.97;;
18443;SDS011;9350;53.176;8.194;2022-12-18T04:38:30;30.70;;;13.03;;
18443;SDS011;9350;53.176;8.194;2022-12-18T04:40:57;34.47;;;13.30;;
18443;SDS011;9350;53.176;8.194;2022-12-18T04:43:24;30.23;;;13.20;;
18443;SDS011;9350;53.176;8.194;2022-12-18T04:45:50;30.13;;;12.53;;
18443;SDS011;9350;53.176;8.194;2022-12-18T04:48:17;29.00;;;12.63;;
18443;SDS011;9350;53.176;8.194;2022-12-18T04:50:46;33.00;;;12.63;;
18443;SDS011;9350;53.176;8.194;2022-12-18T04:53:14;28.33;;;12.40;;
18443;SDS011;9350;53.176;8.194;2022-12-18T04:55:40;31.90;;;12.77;;
18443;SDS011;9350;53.176;8.194;2022-12-18T04:58:07;27.47;;;12.33;;
18443;SDS011;9350;53.176;8.194;2022-12-18T05:00:34;30.33;;;12.93;;
18443;SDS011;9350;53.176;8.194;2022-12-18T05:03:01;24.97;;;11.30;;
18443;SDS011;9350;53.176;8.194;2022-12-18T05:05:28;25.50;;;11.43;;
18443;SDS011;9350;53.176;8.194;2022-12-18T05:07:54;21.93;;;10.73;;
18443;SDS011;9350;53.176;8.194;2022-12-18T05:10:22;27.70;;;11.37;;
18443;SDS011;9350;53.176;8.194;2022-12-18T05:12:49;27.80;;;11.47;;
18443;SDS011;9350;53.176;8.194;2022-12-18T05:15:26;23.90;;;11.17;;
18443;SDS011;9350;53.176;8.194;2022-12-18T05:17:53;28.73;;;11.27;;
18443;SDS011;9350;53.176;8.194;2022-12-18T05:20:20;29.47;;;10.83;;
18443;SDS011;9350;53.176;8.194;2022-12-18T05:22:47;24.43;;;10.67;;
18443;SDS011;9350;53.176;8.194;2022-12-18T05:25:13;25.43;;;10.97;;
18443;SDS011;9350;53.176;8.194;2022-12-18T05:27:42;27.60;;;10.67;;
18443;SDS011;9350;53.176;8.194;2022-12-18T05:30:10;21.67;;;10.30;;
18443;SDS011;9350;53.176;8.194;2022-12-18T05:32:38;22.30;;;10.57;;
18443;SDS011;9350;53.176;8.194;2022-12-18T05:35:05;22.53;;;10.37;;
18443;SDS011;9350;53.176;8.194;2022-12-18T05:37:33;26.03;;;11.27;;
18443;SDS011;9350;53.176;8.194;2022-12-18T05:40:00;23.07;;;10.37;;
18443;SDS011;9350;53.176;8.194;2022-12-18T05:42:27;23.93;;;11.17;;
18443;SDS011;9350;53.176;8.194;2022-12-18T05:44:55;22.03;;;10.43;;
18443;SDS011;9350;53.176;8.194;2022-12-18T05:47:22;25.53;;;10.80;;
18443;SDS011;9350;53.176;8.194;2022-12-18T05:49:48;23.53;;;10.80;;
18443;SDS011;9350;53.176;8.194;2022-12-18T05:52:15;28.87;;;10.27;;
18443;SDS011;9350;53.176;8.194;2022-12-18T05:54:42;26.00;;;10.40;;
18443;SDS011;9350;53.176;8.194;2022-12-18T05:57:08;21.60;;;9.87;;
18443;SDS011;9350;53.176;8.194;2022-12-18T05:59:35;20.57;;;9.07;;
18443;SDS011;9350;53.176;8.194;2022-12-18T06:02:03;23.30;;;9.33;;
18443;SDS011;9350;53.176;8.194;2022-12-18T06:04:30;21.33;;;9.77;;
18443;SDS011;9350;53.176;8.194;2022-12-18T06:06:57;22.70;;;9.80;;
18443;SDS011;9350;53.176;8.194;2022-12-18T06:09:24;19.60;;;9.43;;
18443;SDS011;9350;53.176;8.194;2022-12-18T06:11:50;20.97;;;10.10;;
18443;SDS011;9350;53.176;8.194;2022-12-18T06:14:18;20.27;;;9.20;;
18443;SDS011;9350;53.176;8.194;2022-12-18T06:16:44;18.50;;;9.03;;
18443;SDS011;9350;53.176;8.194;2022-12-18T06:19:14;19.13;;;9.23;;
18443;SDS011;9350;53.176;8.194;2022-12-18T06:21:41;25.60;;;9.97;;
18443;SDS011;9350;53.176;8.194;2022-12-18T06:24:08;18.67;;;8.87;;
18443;SDS011;9350;53.176;8.194;2022-12-18T06:26:36;21.77;;;9.80;;
18443;SDS011;9350;53.176;8.194;2022-12-18T06:29:03;19.70;;;10.00;;
18443;SDS011;9350;53.176;8.194;2022-12-18T06:31:30;23.67;;;9.93;;
18443;SDS011;9350;53.176;8.194;2022-12-18T06:33:57;19.83;;;9.43;;
18443;SDS011;9350;53.176;8.194;2022-12-18T06:36:25;17.47;;;8.47;;
18443;SDS011;9350;53.176;8.194;2022-12-18T06:38:52;17.90;;;9.20;;
18443;SDS011;9350;53.176;8.194;2022-12-18T06:41:19;19.63;;;8.83;;
18443;SDS011;9350;53.176;8.194;2022-12-18T06:43:47;20.57;;;9.70;;
18443;SDS011;9350;53.176;8.194;2022-12-18T06:46:13;18.93;;;9.33;;
18443;SDS011;9350;53.176;8.194;2022-12-18T06:48:40;21.30;;;10.10;;
18443;SDS011;9350;53.176;8.194;2022-12-18T06:51:07;22.47;;;9.43;;
18443;SDS011;9350;53.176;8.194;2022-12-18T06:53:35;17.23;;;8.87;;
18443;SDS011;9350;53.176;8.194;2022-12-18T06:56:02;15.27;;;8.97;;
18443;SDS011;9350;53.176;8.194;2022-12-18T06:58:30;23.67;;;9.20;;
18443;SDS011;9350;53.176;8.194;2022-12-18T07:00:59;21.00;;;8.83;;
18443;SDS011;9350;53.176;8.194;2022-12-18T07:03:26;15.27;;;8.17;;
18443;SDS011;9350;53.176;8.194;2022-12-18T07:05:53;15.83;;;8.77;;
18443;SDS011;9350;53.176;8.194;2022-12-18T07:08:19;17.00;;;8.47;;
18443;SDS011;9350;53.176;8.194;2022-12-18T07:10:47;20.77;;;8.57;;
18443;SDS011;9350;53.176;8.194;2022-12-18T07:13:15;17.77;;;8.10;;
18443;SDS011;9350;53.176;8.194;2022-12-18T07:15:41;21.70;;;9.30;;
18443;SDS011;9350;53.176;8.194;2022-12-18T07:18:08;18.00;;;8.67;;
18443;SDS011;9350;53.176;8.194;2022-12-18T07:20:35;18.73;;;9.20;;
18443;SDS011;9350;53.176;8.194;2022-12-18T07:23:02;18.10;;;8.73;;
18443;SDS011;9350;53.176;8.194;2022-12-18T07:25:30;18.53;;;8.40;;
18443;SDS011;9350;53.176;8.194;2022-12-18T07:28:00;19.73;;;8.70;;
18443;SDS011;9350;53.176;8.194;2022-12-18T07:30:27;16.67;;;8.60;;
18443;SDS011;9350;53.176;8.194;2022-12-18T07:32:54;15.83;;;8.27;;
18443;SDS011;9350;53.176;8.194;2022-12-18T07:35:20;13.63;;;8.30;;
18443;SDS011;9350;53.176;8.194;2022-12-18T07:37:47;14.63;;;7.67;;
18443;SDS011;9350;53.176;8.194;2022-12-18T07:40:14;15.57;;;8.07;;
18443;SDS011;9350;53.176;8.194;2022-12-18T07:42:41;18.57;;;8.43;;
18443;SDS011;9350;53.176;8.194;2022-12-18T07:45:09;16.77;;;7.83;;
18443;SDS011;9350;53.176;8.194;2022-12-18T07:47:36;21.37;;;9.50;;
18443;SDS011;9350;53.176;8.194;2022-12-18T07:50:03;21.07;;;9.80;;
18443;SDS011;9350;53.176;8.194;2022-12-18T07:52:31;21.90;;;9.63;;
18443;SDS011;9350;53.176;8.194;2022-12-18T07:54:57;18.57;;;8.77;;
18443;SDS011;9350;53.176;8.194;2022-12-18T07:57:24;18.10;;;8.80;;
18443;SDS011;9350;53.176;8.194;2022-12-18T07:59:51;17.43;;;7.77;;
18443;SDS011;9350;53.176;8.194;2022-12-18T08:02:19;17.60;;;8.20;;
18443;SDS011;9350;53.176;8.194;2022-12-18T08:04:46;24.03;;;9.40;;
18443;SDS011;9350;53.176;8.194;2022-12-18T08:07:12;17.97;;;9.20;;
18443;SDS011;9350;53.176;8.194;2022-12-18T08:09:39;20.17;;;9.80;;
18443;SDS011;9350;53.176;8.194;2022-12-18T08:12:06;23.27;;;9.67;;
18443;SDS011;9350;53.176;8.194;2022-12-18T08:14:32;23.37;;;9.87;;
18443;SDS011;9350;53.176;8.194;2022-12-18T08:16:59;19.70;;;9.40;;
18443;SDS011;9350;53.176;8.194;2022-12-18T08:19:27;16.03;;;8.40;;
18443;SDS011;9350;53.176;8.194;2022-12-18T08:21:54;14.80;;;8.73;;
18443;SDS011;9350;53.176;8.194;2022-12-18T08:24:21;14.43;;;7.40;;
18443;SDS011;9350;53.176;8.194;2022-12-18T08:26:48;17.35;;;9.52;;
18443;SDS011;9350;53.176;8.194;2022-12-18T08:29:15;20.87;;;9.67;;
18443;SDS011;9350;53.176;8.194;2022-12-18T08:31:42;17.53;;;9.43;;
18443;SDS011;9350;53.176;8.194;2022-12-18T08:34:09;14.83;;;8.60;;
18443;SDS011;9350;53.176;8.194;2022-12-18T08:36:37;17.70;;;8.90;;
18443;SDS011;9350;53.176;8.194;2022-12-18T08:39:03;16.10;;;8.37;;
18443;SDS011;9350;53.176;8.194;2022-12-18T08:41:30;15.30;;;8.60;;
18443;SDS011;9350;53.176;8.194;2022-12-18T08:43:57;13.03;;;7.70;;
18443;SDS011;9350;53.176;8.194;2022-12-18T08:46:43;14.57;;;7.50;;
18443;SDS011;9350;53.176;8.194;2022-12-18T08:49:11;16.47;;;7.30;;
18443;SDS011;9350;53.176;8.194;2022-12-18T08:51:39;16.20;;;7.20;;
18443;SDS011;9350;53.176;8.194;2022-12-18T08:54:06;14.80;;;7.60;;
18443;SDS011;9350;53.176;8.194;2022-12-18T08:56:33;15.67;;;8.13;;
18443;SDS011;9350;53.176;8.194;2022-12-18T08:58:59;14.30;;;7.13;;
18443;SDS011;9350;53.176;8.194;2022-12-18T09:01:26;15.03;;;6.97;;
18443;SDS011;9350;53.176;8.194;2022-12-18T09:03:53;19.77;;;8.10;;
18443;SDS011;9350;53.176;8.194;2022-12-18T09:06:21;16.65;;;7.32;;
18443;SDS011;9350;53.176;8.194;2022-12-18T09:08:50;23.30;;;9.50;;
18443;SDS011;9350;53.176;8.194;2022-12-18T09:11:18;22.43;;;9.90;;
18443;SDS011;9350;53.176;8.194;2022-12-18T09:13:47;17.83;;;8.57;;
18443;SDS011;9350;53.176;8.194;2022-12-18T09:16:13;15.30;;;7.53;;
18443;SDS011;9350;53.176;8.194;2022-12-18T09:18:40;16.93;;;8.17;;
18443;SDS011;9350;53.176;8.194;2022-12-18T09:21:08;17.70;;;7.73;;
18443;SDS011;9350;53.176;8.194;2022-12-18T09:23:35;18.80;;;9.53;;
18443;SDS011;9350;53.176;8.194;2022-12-18T09:26:03;17.90;;;8.90;;
18443;SDS011;9350;53.176;8.194;2022-12-18T09:28:30;19.92;;;9.25;;
18443;SDS011;9350;53.176;8.194;2022-12-18T09:30:57;17.17;;;8.93;;
18443;SDS011;9350;53.176;8.194;2022-12-18T09:33:24;14.93;;;8.10;;
18443;SDS011;9350;53.176;8.194;2022-12-18T09:35:50;20.13;;;9.60;;
18443;SDS011;9350;53.176;8.194;2022-12-18T09:38:18;17.57;;;9.30;;
18443;SDS011;9350;53.176;8.194;2022-12-18T09:40:47;17.73;;;9.03;;
18443;SDS011;9350;53.176;8.194;2022-12-18T09:43:18;20.23;;;9.20;;
18443;SDS011;9350;53.176;8.194;2022-12-18T09:45:47;17.97;;;8.37;;
18443;SDS011;9350;53.176;8.194;2022-12-18T09:48:19;16.13;;;8.83;;
18443;SDS011;9350;53.176;8.194;2022-12-18T09:50:50;18.60;;;8.67;;
18443;SDS011;9350;53.176;8.194;2022-12-18T09:53:22;16.87;;;8.90;;
18443;SDS011;9350;53.176;8.194;2022-12-18T09:55:52;19.20;;;8.87;;
18443;SDS011;9350;53.176;8.194;2022-12-18T09:58:24;17.27;;;8.70;;
18443;SDS011;9350;53.176;8.194;2022-12-18T10:00:54;23.13;;;9.83;;
18443;SDS011;9350;53.176;8.194;2022-12-18T10:03:21;17.77;;;8.17;;
18443;SDS011;9350;53.176;8.194;2022-12-18T10:05:51;13.87;;;8.00;;
18443;SDS011;9350;53.176;8.194;2022-12-18T10:08:30;19.63;;;8.40;;
18443;SDS011;9350;53.176;8.194;2022-12-18T10:11:12;15.83;;;7.53;;
18443;SDS011;9350;53.176;8.194;2022-12-18T10:13:51;12.05;;;7.22;;
18443;SDS011;9350;53.176;8.194;2022-12-18T10:16:24;14.38;;;7.38;;
18443;SDS011;9350;53.176;8.194;2022-12-18T10:19:02;14.70;;;7.60;;
18443;SDS011;9350;53.176;8.194;2022-12-18T10:21:42;18.67;;;8.73;;
18443;SDS011;9350;53.176;8.194;2022-12-18T10:24:15;19.50;;;8.07;;
18443;SDS011;9350;53.176;8.194;2022-12-18T10:26:49;15.57;;;7.90;;
18443;SDS011;9350;53.176;8.194;2022-12-18T10:29:19;16.80;;;8.70;;
18443;SDS011;9350;53.176;8.194;2022-12-18T10:31:46;17.67;;;8.43;;
18443;SDS011;9350;53.176;8.194;2022-12-18T10:34:16;13.43;;;7.87;;
18443;SDS011;9350;53.176;8.194;2022-12-18T10:36:43;15.30;;;7.73;;
18443;SDS011;9350;53.176;8.194;2022-12-18T10:39:16;21.77;;;8.77;;
18443;SDS011;9350;53.176;8.194;2022-12-18T10:41:44;15.33;;;7.53;;
18443;SDS011;9350;53.176;8.194;2022-12-18T10:44:12;14.53;;;7.57;;
18443;SDS011;9350;53.176;8.194;2022-12-18T10:46:46;15.97;;;7.10;;
18443;SDS011;9350;53.176;8.194;2022-12-18T10:49:20;14.32;;;7.65;;
18443;SDS011;9350;53.176;8.194;2022-12-18T10:51:49;18.58;;;8.30;;
18443;SDS011;9350;53.176;8.194;2022-12-18T10:54:17;13.57;;;7.63;;
18443;SDS011;9350;53.176;8.194;2022-12-18T10:56:47;12.98;;;7.47;;
18443;SDS011;9350;53.176;8.194;2022-12-18T10:59:14;16.33;;;8.07;;
18443;SDS011;9350;53.176;8.194;2022-12-18T11:01:47;14.55;;;7.55;;
18443;SDS011;9350;53.176;8.194;2022-12-18T11:04:18;13.77;;;7.13;;
18443;SDS011;9350;53.176;8.194;2022-12-18T11:06:54;23.20;;;9.70;;
18443;SDS011;9350;53.176;8.194;2022-12-18T11:09:22;15.95;;;7.68;;
18443;SDS011;9350;53.176;8.194;2022-12-18T11:11:52;12.60;;;7.10;;
18443;SDS011;9350;53.176;8.194;2022-12-18T11:14:21;14.10;;;7.38;;
18443;SDS011;9350;53.176;8.194;2022-12-18T11:16:51;18.42;;;7.45;;
18443;SDS011;9350;53.176;8.194;2022-12-18T11:19:20;17.27;;;7.28;;
18443;SDS011;9350;53.176;8.194;2022-12-18T11:21:52;14.73;;;8.15;;
18443;SDS011;9350;53.176;8.194;2022-12-18T11:24:19;17.38;;;8.30;;
18443;SDS011;9350;53.176;8.194;2022-12-18T11:26:51;16.02;;;7.57;;
18443;SDS011;9350;53.176;8.194;2022-12-18T11:29:19;13.48;;;7.15;;
18443;SDS011;9350;53.176;8.194;2022-12-18T11:34:58;13.32;;;6.50;;
18443;SDS011;9350;53.176;8.194;2022-12-18T11:37:29;15.73;;;7.78;;
18443;SDS011;9350;53.176;8.194;2022-12-18T11:39:57;11.43;;;7.10;;
18443;SDS011;9350;53.176;8.194;2022-12-18T11:42:27;15.05;;;7.85;;
18443;SDS011;9350;53.176;8.194;2022-12-18T11:45:03;13.13;;;7.50;;
18443;SDS011;9350;53.176;8.194;2022-12-18T11:47:54;15.60;;;7.18;;
18443;SDS011;9350;53.176;8.194;2022-12-18T11:50:26;13.15;;;7.32;;
18443;SDS011;9350;53.176;8.194;2022-12-18T11:52:57;14.85;;;7.05;;
18443;SDS011;9350;53.176;8.194;2022-12-18T11:55:27;19.98;;;7.85;;
18443;SDS011;9350;53.176;8.194;2022-12-18T11:58:03;16.58;;;7.68;;
18443;SDS011;9350;53.176;8.194;2022-12-18T12:00:39;13.70;;;7.05;;
18443;SDS011;9350;53.176;8.194;2022-12-18T12:06:08;11.45;;;7.55;;
18443;SDS011;9350;53.176;8.194;2022-12-18T12:08:43;17.13;;;8.23;;
18443;SDS011;9350;53.176;8.194;2022-12-18T12:11:21;16.40;;;8.25;;
18443;SDS011;9350;53.176;8.194;2022-12-18T12:13:57;14.20;;;8.10;;
18443;SDS011;9350;53.176;8.194;2022-12-18T12:16:34;14.45;;;7.20;;
18443;SDS011;9350;53.176;8.194;2022-12-18T12:19:15;14.73;;;7.25;;
18443;SDS011;9350;53.176;8.194;2022-12-18T12:21:55;11.85;;;7.00;;
18443;SDS011;9350;53.176;8.194;2022-12-18T12:24:29;13.13;;;6.90;;
18443;SDS011;9350;53.176;8.194;2022-12-18T12:27:05;15.48;;;7.65;;
18443;SDS011;9350;53.176;8.194;2022-12-18T12:29:45;17.67;;;8.40;;
18443;SDS011;9350;53.176;8.194;2022-12-18T12:32:22;15.32;;;7.85;;
18443;SDS011;9350;53.176;8.194;2022-12-18T12:35:07;15.63;;;7.50;;
18443;SDS011;9350;53.176;8.194;2022-12-18T12:37:54;12.52;;;7.45;;
18443;SDS011;9350;53.176;8.194;2022-12-18T12:40:31;18.17;;;7.57;;
18443;SDS011;9350;53.176;8.194;2022-12-18T12:43:02;18.90;;;8.73;;
18443;SDS011;9350;53.176;8.194;2022-12-18T12:45:41;19.17;;;8.60;;
18443;SDS011;9350;53.176;8.194;2022-12-18T12:48:16;16.92;;;8.43;;
18443;SDS011;9350;53.176;8.194;2022-12-18T12:50:49;17.67;;;8.13;;
18443;SDS011;9350;53.176;8.194;2022-12-18T12:53:20;16.70;;;8.23;;
18443;SDS011;9350;53.176;8.194;2022-12-18T12:55:51;13.05;;;7.53;;
18443;SDS011;9350;53.176;8.194;2022-12-18T12:58:21;13.80;;;7.13;;
18443;SDS011;9350;53.176;8.194;2022-12-18T13:00:59;11.80;;;7.03;;
18443;SDS011;9350;53.176;8.194;2022-12-18T13:03:35;13.17;;;6.93;;
18443;SDS011;9350;53.176;8.194;2022-12-18T13:06:11;14.98;;;7.20;;
18443;SDS011;9350;53.176;8.194;2022-12-18T13:08:53;13.95;;;7.80;;
18443;SDS011;9350;53.176;8.194;2022-12-18T13:11:32;14.27;;;6.72;;
18443;SDS011;9350;53.176;8.194;2022-12-18T13:14:23;11.70;;;6.55;;
18443;SDS011;9350;53.176;8.194;2022-12-18T13:19:42;12.52;;;6.43;;
18443;SDS011;9350;53.176;8.194;2022-12-18T13:22:21;11.50;;;6.53;;
18443;SDS011;9350;53.176;8.194;2022-12-18T13:24:50;11.80;;;6.25;;
18443;SDS011;9350;53.176;8.194;2022-12-18T13:48:03;10.52;;;5.95;;
18443;SDS011;9350;53.176;8.194;2022-12-18T13:50:30;12.32;;;6.00;;
18443;SDS011;9350;53.176;8.194;2022-12-18T13:52:56;10.85;;;6.40;;
18443;SDS011;9350;53.176;8.194;2022-12-18T13:55:25;11.23;;;6.70;;
18443;SDS011;9350;53.176;8.194;2022-12-18T13:58:02;12.35;;;6.70;;
18443;SDS011;9350;53.176;8.194;2022-12-18T14:00:30;10.50;;;6.10;;
18443;SDS011;9350;53.176;8.194;2022-12-18T14:02:57;12.50;;;7.00;;
18443;SDS011;9350;53.176;8.194;2022-12-18T14:05:26;11.85;;;6.55;;
18443;SDS011;9350;53.176;8.194;2022-12-18T14:07:54;12.23;;;6.88;;
18443;SDS011;9350;53.176;8.194;2022-12-18T14:10:27;10.55;;;6.35;;
18443;SDS011;9350;53.176;8.194;2022-12-18T14:12:54;10.57;;;6.00;;
18443;SDS011;9350;53.176;8.194;2022-12-18T14:15:25;9.10;;;6.15;;
18443;SDS011;9350;53.176;8.194;2022-12-18T14:17:58;11.10;;;7.15;;
18443;SDS011;9350;53.176;8.194;2022-12-18T14:20:28;10.32;;;6.40;;
18443;SDS011;9350;53.176;8.194;2022-12-18T14:22:57;15.32;;;6.80;;
18443;SDS011;9350;53.176;8.194;2022-12-18T14:25:27;11.85;;;6.88;;
18443;SDS011;9350;53.176;8.194;2022-12-18T14:28:02;14.73;;;7.43;;
18443;SDS011;9350;53.176;8.194;2022-12-18T14:30:38;11.13;;;6.80;;
18443;SDS011;9350;53.176;8.194;2022-12-18T14:33:09;12.27;;;6.28;;
18443;SDS011;9350;53.176;8.194;2022-12-18T14:35:38;16.33;;;6.97;;
18443;SDS011;9350;53.176;8.194;2022-12-18T14:38:22;11.73;;;6.60;;
18443;SDS011;9350;53.176;8.194;2022-12-18T14:40:58;12.63;;;6.22;;
18443;SDS011;9350;53.176;8.194;2022-12-18T14:43:26;12.25;;;6.38;;
18443;SDS011;9350;53.176;8.194;2022-12-18T14:45:54;11.70;;;6.32;;
18443;SDS011;9350;53.176;8.194;2022-12-18T14:48:24;21.42;;;6.95;;
18443;SDS011;9350;53.176;8.194;2022-12-18T14:51:00;16.25;;;7.28;;
18443;SDS011;9350;53.176;8.194;2022-12-18T14:53:33;16.88;;;7.85;;
18443;SDS011;9350;53.176;8.194;2022-12-18T14:56:04;13.48;;;7.03;;
18443;SDS011;9350;53.176;8.194;2022-12-18T14:58:44;14.23;;;7.28;;
18443;SDS011;9350;53.176;8.194;2022-12-18T15:01:18;13.15;;;7.07;;
18443;SDS011;9350;53.176;8.194;2022-12-18T15:03:50;18.80;;;7.27;;
18443;SDS011;9350;53.176;8.194;2022-12-18T15:06:21;13.68;;;7.10;;
18443;SDS011;9350;53.176;8.194;2022-12-18T15:08:53;18.88;;;7.20;;
18443;SDS011;9350;53.176;8.194;2022-12-18T15:11:33;15.02;;;7.30;;
18443;SDS011;9350;53.176;8.194;2022-12-18T15:16:50;11.35;;;7.15;;
18443;SDS011;9350;53.176;8.194;2022-12-18T15:19:18;12.27;;;6.53;;
18443;SDS011;9350;53.176;8.194;2022-12-18T15:21:46;13.05;;;6.57;;
18443;SDS011;9350;53.176;8.194;2022-12-18T15:24:16;15.93;;;6.75;;
18443;SDS011;9350;53.176;8.194;2022-12-18T15:26:45;16.83;;;7.20;;
18443;SDS011;9350;53.176;8.194;2022-12-18T15:29:15;12.80;;;6.90;;
18443;SDS011;9350;53.176;8.194;2022-12-18T15:31:57;13.20;;;6.82;;
18443;SDS011;9350;53.176;8.194;2022-12-18T15:34:25;11.93;;;7.00;;